Terminal Aerodrome Forecast
Issued by NWS

Home | Current Version | Previous Version | Text Only | Print | Product List | Glossary On
Versions: 1 2 3 4 5 6 7 8 9 10 11 12 13 14 15 16 17 18 19 20 21 22 23 24 25 26 27 28 29 30
892
FTUS41 KGYX 270634 AAA
TAFAUG
TAF AMD
KAUG 270634Z 2707/2806 30004KT 5SM -DZ BKN009 OVC015
     FM271200 35007KT P6SM BKN025 OVC040
     FM272200 18004KT P6SM OVC050=

USA.gov is the U.S. government's official web portal to all federal, state and local government web resources and services.